Time;durP1;ratioP1;P1;durP2;ratioP2;P2;SDS_P1;SDS_P2;PMS_P1;PMS_P2;Temp;Humidity;BMP_temperature;BMP_pressure;BME280_temperature;BME280_humidity;BME280_pressure;Samples;Min_cycle;Max_cycle;Signal;HPM_P1;HPM_P2
2022/12/02 00:00:28;;;;;;;0.40;0.40;;;14.20;86.80;;;;;;5113561;28;20206;-63
2022/12/02 00:03:19;;;;;;;0.40;0.40;;;14.20;86.80;;;;;;5113997;28;20275;-62
2022/12/02 00:06:14;;;;;;;0.77;0.77;;;14.10;86.70;;;;;;5113807;28;20218;-62
2022/12/02 00:09:13;;;;;;;0.40;0.40;;;14.10;87.20;;;;;;5113596;28;20329;-63
2022/12/02 00:12:15;;;;;;;0.40;0.40;;;14.10;87.00;;;;;;5113441;28;20260;-63
2022/12/02 00:15:40;;;;;;;0.40;0.40;;;14.10;87.10;;;;;;5115130;28;20255;-63
2022/12/02 00:18:29;;;;;;;0.40;0.40;;;14.00;87.70;;;;;;5114393;28;20812;-62
2022/12/02 00:21:18;;;;;;;0.40;0.40;;;14.10;87.90;;;;;;5113628;28;20219;-63
2022/12/02 00:24:06;;;;;;;1.57;1.47;;;14.10;87.30;;;;;;5113487;28;20205;-63
2022/12/02 00:26:54;;;;;;;0.40;0.40;;;14.10;87.60;;;;;;5114291;28;20202;-62
2022/12/02 00:29:42;;;;;;;0.40;0.40;;;14.20;87.50;;;;;;5113617;28;20202;-63
2022/12/02 00:32:31;;;;;;;6.57;3.23;;;14.20;87.70;;;;;;5113795;28;20717;-63
2022/12/02 00:35:20;;;;;;;0.40;0.40;;;14.20;87.70;;;;;;5112847;28;20348;-63
2022/12/02 00:38:08;;;;;;;0.40;0.40;;;14.30;87.00;;;;;;5113695;28;20200;-63
2022/12/02 00:40:56;;;;;;;0.40;0.40;;;14.30;87.00;;;;;;5112496;28;20666;-62
2022/12/02 00:46:49;;;;;;;0.40;0.40;;;14.40;87.20;;;;;;5114443;28;20741;-63
2022/12/02 00:49:39;;;;;;;0.40;0.40;;;14.40;86.70;;;;;;5112183;28;20205;-62
2022/12/02 00:52:27;;;;;;;0.40;0.40;;;14.40;86.50;;;;;;5113710;28;20687;-64
2022/12/02 00:55:15;;;;;;;0.73;0.73;;;14.50;86.80;;;;;;5113587;28;20679;-63
2022/12/02 00:58:03;;;;;;;0.40;0.40;;;14.40;86.60;;;;;;5113255;28;20195;-63
2022/12/02 01:00:51;;;;;;;0.60;0.60;;;14.40;86.90;;;;;;5112505;28;20333;-63
2022/12/02 01:03:40;;;;;;;2.97;2.87;;;14.40;87.00;;;;;;5113056;28;20199;-62
2022/12/02 01:06:34;;;;;;;0.40;0.40;;;14.40;86.70;;;;;;5113314;28;20252;-62
2022/12/02 01:09:22;;;;;;;0.40;0.40;;;14.40;86.80;;;;;;5113039;28;20258;-63
2022/12/02 01:12:10;;;;;;;0.40;0.40;;;14.40;86.70;;;;;;5112423;28;20733;-63
2022/12/02 01:14:58;;;;;;;0.40;0.40;;;14.40;86.90;;;;;;5113594;28;20448;-62
2022/12/02 01:17:46;;;;;;;0.40;0.40;;;14.30;86.80;;;;;;5112762;28;20200;-62
2022/12/02 01:20:34;;;;;;;0.40;0.40;;;14.40;86.80;;;;;;5112468;28;20248;-63
2022/12/02 01:23:24;;;;;;;0.57;0.57;;;14.30;86.60;;;;;;5112595;28;20204;-63
2022/12/02 01:26:12;;;;;;;0.50;0.50;;;14.30;86.70;;;;;;5112272;28;20306;-63
2022/12/02 01:29:00;;;;;;;0.40;0.40;;;14.30;86.70;;;;;;5112867;28;20278;-63
2022/12/02 01:31:49;;;;;;;0.40;0.40;;;14.30;86.60;;;;;;5114040;28;20223;-62
2022/12/02 01:34:37;;;;;;;1.73;1.63;;;14.20;86.70;;;;;;5112676;28;20230;-62
2022/12/02 01:37:25;;;;;;;0.40;0.40;;;14.20;86.70;;;;;;5112241;28;20508;-62
2022/12/02 01:40:15;;;;;;;0.40;0.40;;;14.20;87.10;;;;;;5112234;28;20278;-62
2022/12/02 01:43:03;;;;;;;0.40;0.40;;;14.20;86.70;;;;;;5112802;28;20682;-63
2022/12/02 01:45:52;;;;;;;0.50;0.50;;;14.10;86.80;;;;;;5112979;28;20585;-63
2022/12/02 01:48:40;;;;;;;0.40;0.40;;;14.20;87.20;;;;;;5112493;28;20206;-64
2022/12/02 01:51:28;;;;;;;0.40;0.40;;;14.10;87.30;;;;;;5112426;28;20294;-64
2022/12/02 01:54:16;;;;;;;0.73;0.73;;;14.20;93.10;;;;;;5112009;28;20256;-61
2022/12/02 01:57:10;;;;;;;0.40;0.40;;;14.20;88.40;;;;;;5113055;28;20192;-62
2022/12/02 01:59:58;;;;;;;0.40;0.40;;;14.30;88.50;;;;;;5112005;28;20278;-64
2022/12/02 02:02:46;;;;;;;0.50;0.50;;;14.50;88.40;;;;;;5115093;28;20191;-62
2022/12/02 02:05:35;;;;;;;0.40;0.40;;;14.60;88.20;;;;;;5116848;28;20215;-63
2022/12/02 02:08:23;;;;;;;0.40;0.40;;;14.70;87.90;;;;;;5116611;28;20274;-63
2022/12/02 02:11:11;;;;;;;0.40;0.40;;;14.80;87.70;;;;;;5115513;28;20198;-64
2022/12/02 02:14:01;;;;;;;0.40;0.40;;;14.80;87.40;;;;;;5117655;28;20259;-63
2022/12/02 02:16:49;;;;;;;0.50;0.50;;;14.80;87.10;;;;;;5115779;28;20646;-63
2022/12/02 02:19:38;;;;;;;4.33;2.20;;;14.90;87.30;;;;;;5115455;28;20203;-63
2022/12/02 02:22:31;;;;;;;0.40;0.40;;;14.90;86.90;;;;;;5115793;28;20231;-63
2022/12/02 02:25:21;;;;;;;0.40;0.40;;;14.90;87.00;;;;;;5113167;28;20298;-63
2022/12/02 02:28:09;;;;;;;0.57;0.57;;;14.90;86.80;;;;;;5113657;28;20195;-63
2022/12/02 02:30:58;;;;;;;1.05;1.05;;;14.90;86.30;;;;;;5117348;28;20543;-63
2022/12/02 02:33:48;;;;;;;0.40;0.40;;;14.90;86.40;;;;;;5115717;28;20215;-63
2022/12/02 02:36:36;;;;;;;0.40;0.40;;;14.90;86.20;;;;;;5116994;28;20218;-61
2022/12/02 02:39:25;;;;;;;0.40;0.40;;;14.80;86.60;;;;;;5116017;28;20203;-62
2022/12/02 02:42:14;;;;;;;1.20;1.20;;;14.80;86.50;;;;;;5116309;28;20618;-62
2022/12/02 02:45:03;;;;;;;0.70;0.70;;;14.80;86.40;;;;;;5115229;28;20668;-63
2022/12/02 02:47:52;;;;;;;0.40;0.40;;;14.80;86.10;;;;;;5116451;28;20202;-62
2022/12/02 02:50:44;;;;;;;0.40;0.40;;;14.70;86.20;;;;;;5114377;28;20328;-64
2022/12/02 02:53:32;;;;;;;5.03;2.87;;;14.70;86.20;;;;;;5116286;28;20716;-64
2022/12/02 02:56:20;;;;;;;0.40;0.40;;;14.60;86.10;;;;;;5115745;28;20215;-63
2022/12/02 02:59:13;;;;;;;0.40;0.40;;;14.60;86.00;;;;;;5115671;28;20200;-63
2022/12/02 03:02:06;;;;;;;0.40;0.40;;;14.60;86.20;;;;;;5115714;28;20227;-63
2022/12/02 03:04:55;;;;;;;0.50;0.50;;;14.60;86.50;;;;;;5115542;28;20219;-63
2022/12/02 03:07:43;;;;;;;0.40;0.40;;;14.50;86.30;;;;;;5116008;28;20562;-63
2022/12/02 03:10:31;;;;;;;11.33;8.57;;;14.50;86.60;;;;;;5115237;28;20199;-63
2022/12/02 03:13:20;;;;;;;0.40;0.40;;;14.40;86.30;;;;;;5115484;28;20306;-62
2022/12/02 03:16:13;;;;;;;3.33;3.03;;;14.40;86.40;;;;;;5115181;28;20225;-62
2022/12/02 03:19:02;;;;;;;0.40;0.40;;;14.40;86.70;;;;;;5115954;28;20195;-63
2022/12/02 03:21:50;;;;;;;1.17;1.17;;;14.40;86.90;;;;;;5115651;28;20300;-63
2022/12/02 03:24:39;;;;;;;2.40;2.20;;;14.30;86.60;;;;;;5114845;28;20222;-62
2022/12/02 03:27:28;;;;;;;0.40;0.40;;;14.30;86.60;;;;;;5115851;28;20328;-63
2022/12/02 03:30:16;;;;;;;0.40;0.40;;;14.30;86.80;;;;;;5114770;28;20576;-63
2022/12/02 03:33:07;;;;;;;0.40;0.40;;;14.30;86.80;;;;;;5115404;28;20298;-63
2022/12/02 03:35:55;;;;;;;0.40;0.40;;;14.20;86.70;;;;;;5114752;28;20223;-63
2022/12/02 03:38:44;;;;;;;1.60;1.50;;;14.20;86.90;;;;;;5115485;28;20227;-63
2022/12/02 03:41:32;;;;;;;0.50;0.50;;;14.30;87.20;;;;;;5114691;28;20635;-63
2022/12/02 03:44:20;;;;;;;0.50;0.50;;;14.30;89.30;;;;;;5114575;28;20727;-63
2022/12/02 03:47:08;;;;;;;0.40;0.40;;;14.30;86.80;;;;;;5115144;28;20278;-64
2022/12/02 03:49:58;;;;;;;0.40;0.40;;;14.30;87.00;;;;;;5114163;28;20263;-63
2022/12/02 03:52:47;;;;;;;0.40;0.40;;;14.30;87.30;;;;;;5115111;28;20247;-63
2022/12/02 03:55:35;;;;;;;0.40;0.40;;;14.30;87.70;;;;;;5114330;28;20298;-63
2022/12/02 03:58:33;;;;;;;0.40;0.40;;;14.30;87.30;;;;;;5114670;28;20508;-64
2022/12/02 04:01:22;;;;;;;0.40;0.40;;;14.30;87.30;;;;;;5114687;28;20286;-63
2022/12/02 04:04:10;;;;;;;0.40;0.40;;;14.40;87.40;;;;;;5114942;28;20752;-62
2022/12/02 04:06:59;;;;;;;0.75;0.75;;;14.30;87.10;;;;;;5114699;28;20697;-64
2022/12/02 04:09:47;;;;;;;0.40;0.40;;;14.30;87.20;;;;;;5113833;28;20203;-62
2022/12/02 04:12:35;;;;;;;1.05;1.00;;;14.30;87.20;;;;;;5114687;28;20299;-63
2022/12/02 04:15:24;;;;;;;5.70;5.40;;;14.30;87.20;;;;;;5114285;28;20242;-63
2022/12/02 04:18:12;;;;;;;0.40;0.40;;;14.30;86.60;;;;;;5114973;28;20242;-63
2022/12/02 04:21:00;;;;;;;0.40;0.40;;;14.40;87.20;;;;;;5114155;28;20250;-62
2022/12/02 04:23:49;;;;;;;0.40;0.40;;;14.30;87.20;;;;;;5114453;28;20278;-62
2022/12/02 04:26:37;;;;;;;0.40;0.40;;;14.30;87.10;;;;;;5113672;28;20260;-62
2022/12/02 04:29:30;;;;;;;0.40;0.40;;;14.30;87.10;;;;;;5113734;28;20414;-63
2022/12/02 04:32:18;;;;;;;0.47;0.47;;;14.30;87.20;;;;;;5114624;28;20278;-64
2022/12/02 04:35:07;;;;;;;0.40;0.40;;;14.30;87.10;;;;;;5113987;28;20689;-64
2022/12/02 04:37:55;;;;;;;0.40;0.40;;;14.30;86.90;;;;;;5114069;28;20268;-63
2022/12/02 04:40:45;;;;;;;0.40;0.40;;;14.30;87.40;;;;;;5113583;28;20282;-63
2022/12/02 04:43:33;;;;;;;0.40;0.40;;;14.20;86.90;;;;;;5114513;28;20195;-63
2022/12/02 04:46:21;;;;;;;0.40;0.40;;;14.20;86.90;;;;;;5114730;28;20280;-61
2022/12/02 04:49:09;;;;;;;2.07;2.07;;;14.20;87.20;;;;;;5114006;28;20206;-63
2022/12/02 04:51:57;;;;;;;0.47;0.47;;;14.10;87.20;;;;;;5113352;28;20284;-63
2022/12/02 04:54:45;;;;;;;0.40;0.40;;;14.10;87.20;;;;;;5114895;28;20301;-63
2022/12/02 04:57:35;;;;;;;0.40;0.40;;;14.00;87.20;;;;;;5114174;28;21014;-64
2022/12/02 05:00:23;;;;;;;0.40;0.40;;;14.10;87.40;;;;;;5112996;28;20324;-63
2022/12/02 05:03:11;;;;;;;0.50;0.50;;;14.10;87.40;;;;;;5114619;28;20278;-65
2022/12/02 05:05:59;;;;;;;1.53;1.43;;;14.10;87.50;;;;;;5113829;28;20225;-65
2022/12/02 05:08:47;;;;;;;2.53;2.43;;;14.00;87.50;;;;;;5113881;28;20542;-66
2022/12/02 05:11:35;;;;;;;0.40;0.40;;;14.00;87.70;;;;;;5113156;28;20740;-65
2022/12/02 05:14:25;;;;;;;0.40;0.40;;;14.00;95.50;;;;;;5113711;28;20261;-65
2022/12/02 05:17:13;;;;;;;0.40;0.40;;;14.10;87.50;;;;;;5114056;28;20394;-62
2022/12/02 05:20:01;;;;;;;0.40;0.40;;;14.10;88.10;;;;;;5112787;28;20678;-63
2022/12/02 05:22:49;;;;;;;0.40;0.40;;;14.10;87.70;;;;;;5113742;28;20578;-63
2022/12/02 05:25:37;;;;;;;0.40;0.40;;;14.20;87.70;;;;;;5113258;28;20320;-63
2022/12/02 05:28:25;;;;;;;0.40;0.40;;;14.20;87.90;;;;;;5113251;28;20195;-63
2022/12/02 05:31:15;;;;;;;0.77;0.77;;;14.20;87.30;;;;;;5112858;28;20734;-63
2022/12/02 05:34:03;;;;;;;0.50;0.50;;;14.30;87.30;;;;;;5114158;28;20797;-63
2022/12/02 05:36:51;;;;;;;0.50;0.50;;;14.30;87.40;;;;;;5116777;28;20260;-62
2022/12/02 05:39:39;;;;;;;0.40;0.40;;;14.30;87.40;;;;;;5116940;28;20210;-62
2022/12/02 05:42:27;;;;;;;0.40;0.40;;;14.30;87.30;;;;;;5117494;28;20671;-63
2022/12/02 05:45:19;;;;;;;0.40;0.40;;;14.40;87.20;;;;;;5116587;28;20303;-62
2022/12/02 05:48:11;;;;;;;0.40;0.40;;;14.30;87.20;;;;;;5117187;28;20278;-63
2022/12/02 05:51:00;;;;;;;0.40;0.40;;;14.30;87.30;;;;;;5117064;28;20305;-63
2022/12/02 05:53:49;;;;;;;0.40;0.40;;;14.30;87.30;;;;;;5117638;28;20985;-62
2022/12/02 05:56:38;;;;;;;3.37;3.23;;;14.30;87.20;;;;;;5117620;28;20498;-63
2022/12/02 05:59:28;;;;;;;0.50;0.50;;;14.30;87.50;;;;;;5117153;28;20206;-63
2022/12/02 06:02:25;;;;;;;0.40;0.40;;;14.30;87.40;;;;;;5118279;28;20222;-66
2022/12/02 06:05:17;;;;;;;0.40;0.40;;;14.30;87.50;;;;;;5116874;28;20218;-63
2022/12/02 06:08:14;;;;;;;0.50;0.50;;;14.30;87.40;;;;;;5117628;28;20199;-62
2022/12/02 06:11:08;;;;;;;0.40;0.40;;;14.30;87.00;;;;;;5115900;28;20228;-63
2022/12/02 06:13:58;;;;;;;0.40;0.40;;;14.30;87.50;;;;;;5117217;28;20215;-63
2022/12/02 06:16:51;;;;;;;1.27;1.23;;;14.30;87.30;;;;;;5118038;28;20210;-63
2022/12/02 06:19:43;;;;;;;0.50;0.50;;;14.20;87.20;;;;;;5116585;28;20667;-63
2022/12/02 06:22:34;;;;;;;0.40;0.40;;;14.20;87.10;;;;;;5117895;28;20280;-63
2022/12/02 06:25:25;;;;;;;0.40;0.40;;;14.20;87.30;;;;;;5117171;28;20303;-62
2022/12/02 06:28:22;;;;;;;0.50;0.50;;;14.10;87.40;;;;;;5116250;28;20199;-63
2022/12/02 06:31:15;;;;;;;0.40;0.40;;;14.10;87.40;;;;;;5115599;28;20244;-63
2022/12/02 06:34:20;;;;;;;0.50;0.50;;;14.10;87.50;;;;;;5112999;28;20215;-63
2022/12/02 06:37:15;;;;;;;0.40;0.40;;;14.10;87.80;;;;;;5097265;28;20738;-64
2022/12/02 06:40:22;;;;;;;0.40;0.40;;;14.10;88.60;;;;;;5095243;28;20521;-62
2022/12/02 06:43:24;;;;;;;0.77;0.77;;;14.20;88.70;;;;;;5076625;28;20354;-66
2022/12/02 06:46:19;;;;;;;0.50;0.50;;;14.30;88.40;;;;;;5075078;28;20213;-63
2022/12/02 06:49:18;;;;;;;0.40;0.40;;;14.30;88.10;;;;;;5074602;28;20204;-65
2022/12/02 06:52:22;;;;;;;0.40;0.40;;;14.30;88.00;;;;;;5076489;28;20204;-66
2022/12/02 06:55:27;;;;;;;0.40;0.40;;;14.30;88.00;;;;;;5074896;28;20251;-64
2022/12/02 06:58:26;;;;;;;0.52;0.52;;;14.40;87.70;;;;;;5075528;28;20303;-63
2022/12/02 07:01:23;;;;;;;0.40;0.40;;;14.40;87.10;;;;;;5092113;28;20356;-64
2022/12/02 07:04:29;;;;;;;0.40;0.40;;;14.50;86.90;;;;;;5096798;28;20313;-63
2022/12/02 07:07:20;;;;;;;2.23;2.10;;;14.50;87.20;;;;;;5098396;28;20278;-63
2022/12/02 07:10:19;;;;;;;0.40;0.40;;;14.60;86.90;;;;;;5084018;28;20235;-62
2022/12/02 07:13:16;;;;;;;0.40;0.40;;;14.60;86.90;;;;;;5094017;28;20322;-63
2022/12/02 07:16:21;;;;;;;0.40;0.40;;;14.60;86.80;;;;;;5082205;28;20698;-63
2022/12/02 07:19:15;;;;;;;0.40;0.40;;;14.50;86.50;;;;;;5094454;28;20534;-64
2022/12/02 07:22:10;;;;;;;1.17;1.17;;;14.50;86.60;;;;;;5083016;28;20259;-63
2022/12/02 07:25:19;;;;;;;0.40;0.40;;;14.50;86.70;;;;;;5093989;28;20299;-62
2022/12/02 07:28:23;;;;;;;0.50;0.50;;;14.50;86.40;;;;;;5083391;28;20341;-65
2022/12/02 07:31:18;;;;;;;0.40;0.40;;;14.50;86.90;;;;;;5094390;28;20238;-64
2022/12/02 07:34:07;;;;;;;0.40;0.40;;;14.40;86.60;;;;;;5094818;28;20273;-63
2022/12/02 07:36:55;;;;;;;1.27;1.25;;;14.40;86.70;;;;;;5094060;28;20288;-62
2022/12/02 07:39:43;;;;;;;0.40;0.40;;;14.40;87.10;;;;;;5076879;28;20269;-63
2022/12/02 07:42:31;;;;;;;0.90;0.90;;;14.40;86.90;;;;;;5079341;28;20283;-62
2022/12/02 07:45:20;;;;;;;0.40;0.40;;;14.40;86.90;;;;;;5092639;28;20322;-62
2022/12/02 07:48:08;;;;;;;1.73;1.73;;;14.40;87.10;;;;;;5081493;28;20218;-63
2022/12/02 07:50:56;;;;;;;0.40;0.40;;;14.30;87.10;;;;;;5094625;28;20628;-63
2022/12/02 07:53:44;;;;;;;0.40;0.40;;;14.30;87.00;;;;;;5079331;28;20195;-63
2022/12/02 07:56:32;;;;;;;0.40;0.40;;;14.30;87.10;;;;;;5084382;28;20306;-62
2022/12/02 07:59:21;;;;;;;0.40;0.40;;;14.30;87.30;;;;;;5092180;28;20246;-63
2022/12/02 08:02:10;;;;;;;0.40;0.40;;;14.30;87.40;;;;;;5093103;28;20207;-64
2022/12/02 08:04:58;;;;;;;0.40;0.40;;;14.30;87.30;;;;;;5094059;28;20246;-62
2022/12/02 08:07:46;;;;;;;0.40;0.40;;;14.30;87.40;;;;;;5072102;28;20399;-62
2022/12/02 08:10:34;;;;;;;0.80;0.80;;;14.30;87.10;;;;;;5074244;28;20200;-61
2022/12/02 08:13:22;;;;;;;0.60;0.60;;;14.30;87.50;;;;;;5073511;28;20293;-63
2022/12/02 08:16:11;;;;;;;0.40;0.40;;;14.30;87.50;;;;;;5074071;28;20252;-62
2022/12/02 08:19:00;;;;;;;0.40;0.40;;;14.30;87.30;;;;;;5074174;28;20227;-62
2022/12/02 08:21:48;;;;;;;0.40;0.40;;;14.30;87.70;;;;;;5073505;28;20197;-63
2022/12/02 08:24:37;;;;;;;0.40;0.40;;;14.30;87.20;;;;;;5072612;28;20212;-65
2022/12/02 08:27:25;;;;;;;0.40;0.40;;;14.30;87.80;;;;;;5073638;28;20373;-63
2022/12/02 08:30:16;;;;;;;0.40;0.40;;;14.30;87.70;;;;;;5073293;28;20223;-66
2022/12/02 08:33:04;;;;;;;0.40;0.40;;;14.40;87.80;;;;;;5073373;28;20596;-64
2022/12/02 08:35:53;;;;;;;0.40;0.40;;;14.40;87.70;;;;;;5088125;28;20251;-63
2022/12/02 08:38:42;;;;;;;5.60;5.40;;;14.40;87.60;;;;;;5093866;28;20282;-64
2022/12/02 08:41:31;;;;;;;0.40;0.40;;;14.40;87.40;;;;;;5094261;28;20627;-63
2022/12/02 08:44:19;;;;;;;0.40;0.40;;;14.40;87.30;;;;;;5092826;28;20216;-63
2022/12/02 08:47:07;;;;;;;0.40;0.40;;;14.40;88.10;;;;;;5094130;28;20729;-63
2022/12/02 08:49:55;;;;;;;0.50;0.50;;;14.40;87.90;;;;;;5093211;28;20221;-63
2022/12/02 08:52:44;;;;;;;0.40;0.40;;;14.40;87.20;;;;;;5094189;28;20302;-63
2022/12/02 08:55:32;;;;;;;0.60;0.60;;;14.40;87.10;;;;;;5092953;28;20306;-64
2022/12/02 08:58:21;;;;;;;0.40;0.40;;;14.40;87.30;;;;;;5112061;28;20278;-63
2022/12/02 09:01:09;;;;;;;0.40;0.40;;;14.40;87.20;;;;;;5112829;28;20200;-64
2022/12/02 09:03:57;;;;;;;0.40;0.40;;;14.30;87.20;;;;;;5113631;28;20200;-63
2022/12/02 09:06:45;;;;;;;0.40;0.40;;;14.30;87.40;;;;;;5103359;28;20662;-64
2022/12/02 09:09:35;;;;;;;0.40;0.40;;;14.30;87.10;;;;;;5093229;28;20262;-64
2022/12/02 09:12:23;;;;;;;0.40;0.40;;;14.30;87.20;;;;;;5091877;28;20196;-63
2022/12/02 09:15:11;;;;;;;0.40;0.40;;;14.30;87.20;;;;;;5092648;28;20259;-63
2022/12/02 09:17:59;;;;;;;0.40;0.40;;;14.20;87.30;;;;;;5092408;28;20303;-63
2022/12/02 09:20:48;;;;;;;0.40;0.40;;;14.30;87.20;;;;;;5093255;28;20488;-64
2022/12/02 09:23:36;;;;;;;0.40;0.40;;;14.20;87.10;;;;;;5092439;28;20200;-63
2022/12/02 09:26:25;;;;;;;2.93;2.70;;;14.20;87.10;;;;;;5093824;28;20560;-64
2022/12/02 09:29:13;;;;;;;0.50;0.50;;;14.20;87.10;;;;;;5092927;28;20196;-64
2022/12/02 09:32:01;;;;;;;0.40;0.40;;;14.20;87.60;;;;;;5093348;28;20283;-64
2022/12/02 09:34:49;;;;;;;0.40;0.40;;;14.20;87.70;;;;;;5093192;28;20232;-65
2022/12/02 09:37:38;;;;;;;0.40;0.40;;;14.20;87.40;;;;;;5093185;28;20207;-63
2022/12/02 09:40:27;;;;;;;0.40;0.40;;;14.30;87.50;;;;;;5093494;28;20207;-64
2022/12/02 09:43:17;;;;;;;0.40;0.40;;;14.30;87.30;;;;;;5093320;28;20200;-64
2022/12/02 09:46:05;;;;;;;0.40;0.40;;;14.30;87.30;;;;;;5092298;28;20220;-64
2022/12/02 09:48:54;;;;;;;0.40;0.40;;;14.40;88.00;;;;;;5093299;28;20200;-65
2022/12/02 09:51:42;;;;;;;0.40;0.40;;;14.40;87.50;;;;;;5092953;28;20237;-64
2022/12/02 09:54:30;;;;;;;1.40;1.40;;;14.40;86.70;;;;;;5093074;28;20283;-63
2022/12/02 09:57:27;;;;;;;0.40;0.40;;;14.40;87.10;;;;;;5092832;28;20242;-63
2022/12/02 10:00:20;;;;;;;0.40;0.40;;;14.50;87.00;;;;;;5092354;28;20296;-64
2022/12/02 10:03:08;;;;;;;0.40;0.40;;;14.50;87.00;;;;;;5091872;28;20289;-64
2022/12/02 10:06:07;;;;;;;0.40;0.40;;;14.50;86.70;;;;;;5092066;28;20215;-63
2022/12/02 10:08:57;;;;;;;0.40;0.40;;;14.50;87.00;;;;;;5093198;28;20210;-64
2022/12/02 10:11:45;;;;;;;0.40;0.40;;;14.50;86.70;;;;;;5092864;28;20298;-64
2022/12/02 10:14:33;;;;;;;0.40;0.40;;;14.50;86.60;;;;;;5092966;28;20338;-63
2022/12/02 10:17:23;;;;;;;0.40;0.40;;;14.50;86.70;;;;;;5091572;28;20226;-64
2022/12/02 10:20:18;;;;;;;0.50;0.50;;;14.50;86.60;;;;;;5092312;28;20200;-62
2022/12/02 10:23:09;;;;;;;0.40;0.40;;;14.50;86.80;;;;;;5094750;28;20196;-63
2022/12/02 10:26:11;;;;;;;0.40;0.40;;;14.50;86.70;;;;;;5095020;28;20688;-63
2022/12/02 10:29:02;;;;;;;0.50;0.50;;;14.50;86.80;;;;;;5096249;28;20691;-63
2022/12/02 10:31:55;;;;;;;0.40;0.40;;;14.50;86.90;;;;;;5096676;28;20210;-63
2022/12/02 10:35:01;;;;;;;0.40;0.40;;;14.50;86.80;;;;;;5096829;28;20228;-63
2022/12/02 10:37:49;;;;;;;0.40;0.40;;;14.50;86.90;;;;;;5095880;28;20199;-63
2022/12/02 10:40:37;;;;;;;0.40;0.40;;;14.40;86.80;;;;;;5095885;28;20204;-63
2022/12/02 10:43:26;;;;;;;0.40;0.40;;;14.50;87.10;;;;;;5095663;28;20238;-62
2022/12/02 10:46:14;;;;;;;0.50;0.50;;;14.40;86.90;;;;;;5095741;28;20700;-63
2022/12/02 10:49:27;;;;;;;0.40;0.40;;;14.40;86.90;;;;;;5096442;28;20571;-63
2022/12/02 10:52:21;;;;;;;0.40;0.40;;;14.30;86.90;;;;;;5094788;28;20428;-63
2022/12/02 10:55:10;;;;;;;0.40;0.40;;;14.30;87.00;;;;;;5095452;28;20227;-63
2022/12/02 10:57:58;;;;;;;0.40;0.40;;;14.30;87.00;;;;;;5095091;28;20571;-64
2022/12/02 11:00:47;;;;;;;0.40;0.40;;;14.30;87.50;;;;;;5095103;28;20329;-64
2022/12/02 11:03:36;;;;;;;0.40;0.40;;;14.30;87.60;;;;;;5095598;28;20196;-64
2022/12/02 11:06:24;;;;;;;0.40;0.40;;;14.30;87.50;;;;;;5095641;28;20273;-62
2022/12/02 11:09:18;;;;;;;0.40;0.40;;;14.30;87.30;;;;;;5094954;28;20904;-63
2022/12/02 11:12:31;;;;;;;0.50;0.50;;;14.30;87.70;;;;;;5095714;28;20218;-63
2022/12/02 11:15:44;;;;;;;0.50;0.50;;;14.40;87.60;;;;;;5095245;28;20591;-63
2022/12/02 11:18:55;;;;;;;0.40;0.40;;;14.40;87.30;;;;;;5095245;28;20245;-63
2022/12/02 11:21:44;;;;;;;0.40;0.40;;;14.50;87.50;;;;;;5095670;28;20203;-64
2022/12/02 11:24:37;;;;;;;0.40;0.40;;;14.50;87.10;;;;;;5094898;28;20295;-64
2022/12/02 11:27:26;;;;;;;0.40;0.40;;;14.50;87.10;;;;;;5095085;28;20241;-62
2022/12/02 11:30:36;;;;;;;0.40;0.40;;;14.50;87.30;;;;;;5094797;28;20279;-63
2022/12/02 11:34:00;;;;;;;0.40;0.40;;;14.60;87.00;;;;;;5095215;28;20249;-68
2022/12/02 11:37:32;;;;;;;0.40;0.40;;;14.60;86.90;;;;;;5095490;28;20317;-63
2022/12/02 11:40:57;;;;;;;0.40;0.40;;;14.60;87.00;;;;;;5094762;28;20422;-63
2022/12/02 11:44:06;;;;;;;0.80;0.80;;;14.60;86.70;;;;;;5095527;28;20740;-62
2022/12/02 11:46:55;;;;;;;0.40;0.40;;;14.60;86.60;;;;;;5094710;28;20214;-62
2022/12/02 11:49:43;;;;;;;0.40;0.40;;;14.50;86.80;;;;;;5094233;28;20617;-63
2022/12/02 11:52:32;;;;;;;0.40;0.40;;;14.50;86.30;;;;;;5094778;28;20203;-63
2022/12/02 11:55:22;;;;;;;0.40;0.40;;;14.50;86.60;;;;;;5094068;28;20258;-63
2022/12/02 11:58:17;;;;;;;0.40;0.40;;;14.50;86.70;;;;;;5077895;28;20245;-63
2022/12/02 12:01:12;;;;;;;0.40;0.40;;;14.50;86.70;;;;;;5074112;28;20392;-63
2022/12/02 12:04:00;;;;;;;0.40;0.40;;;14.50;86.60;;;;;;5074396;28;20346;-62
2022/12/02 12:06:54;;;;;;;0.40;0.40;;;14.40;86.80;;;;;;5074162;28;20279;-61
2022/12/02 12:09:55;;;;;;;0.40;0.40;;;14.40;86.70;;;;;;5074634;28;20280;-63
2022/12/02 12:13:15;;;;;;;0.40;0.40;;;14.40;87.00;;;;;;5073847;28;20220;-62
2022/12/02 12:16:03;;;;;;;0.40;0.40;;;14.40;86.90;;;;;;5073689;28;20256;-62
2022/12/02 12:18:53;;;;;;;0.60;0.60;;;14.40;86.90;;;;;;5073781;28;20204;-62
2022/12/02 12:21:46;;;;;;;0.40;0.40;;;14.30;86.90;;;;;;5073050;28;20212;-63
2022/12/02 12:24:34;;;;;;;0.40;0.40;;;14.30;86.90;;;;;;5073156;28;20216;-63
2022/12/02 12:27:35;;;;;;;0.40;0.40;;;14.30;86.80;;;;;;5073254;28;20204;-62
2022/12/02 12:30:30;;;;;;;0.40;0.40;;;14.30;86.80;;;;;;5072860;28;20200;-63
2022/12/02 12:33:27;;;;;;;0.40;0.40;;;14.30;87.00;;;;;;5073207;28;20197;-62
2022/12/02 12:36:19;;;;;;;0.40;0.40;;;14.30;87.20;;;;;;5073155;28;20228;-63
2022/12/02 12:39:18;;;;;;;0.40;0.40;;;14.20;86.60;;;;;;5072974;28;20272;-62
2022/12/02 12:42:14;;;;;;;0.40;0.40;;;14.20;86.80;;;;;;5074100;28;20203;-65
2022/12/02 12:45:03;;;;;;;0.50;0.50;;;14.20;86.80;;;;;;5072592;28;20236;-63
2022/12/02 12:47:51;;;;;;;0.40;0.40;;;14.20;86.90;;;;;;5072276;28;20197;-63
2022/12/02 12:50:40;;;;;;;0.40;0.40;;;14.20;86.90;;;;;;5071809;28;20205;-62
2022/12/02 12:53:32;;;;;;;0.40;0.40;;;14.20;86.70;;;;;;5072712;28;20203;-63
2022/12/02 12:56:20;;;;;;;0.40;0.40;;;14.20;86.90;;;;;;5072469;28;20318;-63
2022/12/02 12:59:08;;;;;;;0.40;0.40;;;14.20;86.90;;;;;;5072339;28;20318;-62
2022/12/02 13:01:56;;;;;;;7.27;6.70;;;14.20;87.20;;;;;;5072765;28;20209;-63
2022/12/02 13:04:44;;;;;;;0.40;0.40;;;14.20;86.90;;;;;;5072053;28;20216;-62
2022/12/02 13:07:33;;;;;;;0.40;0.40;;;14.20;86.90;;;;;;5071570;28;20197;-62
2022/12/02 13:10:22;;;;;;;0.83;0.83;;;14.20;87.10;;;;;;5071613;28;20224;-62
2022/12/02 13:13:10;;;;;;;0.40;0.40;;;14.20;86.20;;;;;;5072284;28;20481;-63
2022/12/02 13:15:59;;;;;;;0.40;0.40;;;14.20;86.90;;;;;;5070969;28;20710;-63
2022/12/02 13:18:47;;;;;;;0.80;0.80;;;14.20;87.30;;;;;;5071634;28;20289;-63
2022/12/02 13:21:35;;;;;;;0.40;0.40;;;14.20;87.10;;;;;;5071258;28;20277;-63
2022/12/02 13:24:23;;;;;;;0.40;0.40;;;14.20;87.00;;;;;;5071163;28;20229;-63
2022/12/02 13:27:12;;;;;;;0.40;0.40;;;14.20;87.20;;;;;;5072153;28;20279;-63
2022/12/02 13:30:00;;;;;;;0.80;0.80;;;14.20;87.10;;;;;;5071701;28;20275;-63
2022/12/02 13:32:49;;;;;;;0.40;0.40;;;14.10;87.00;;;;;;5071867;28;20280;-63
2022/12/02 13:35:37;;;;;;;0.40;0.40;;;14.10;86.50;;;;;;5083182;28;20330;-62
2022/12/02 13:38:25;;;;;;;0.40;0.40;;;14.10;87.50;;;;;;5093093;28;20302;-64
2022/12/02 13:41:13;;;;;;;0.40;0.40;;;14.10;87.20;;;;;;5092147;28;20507;-64
2022/12/02 13:44:03;;;;;;;0.40;0.40;;;14.10;87.70;;;;;;5092774;28;20571;-66
2022/12/02 13:46:51;;;;;;;0.50;0.50;;;14.10;87.50;;;;;;5092979;28;20743;-64
2022/12/02 13:49:40;;;;;;;0.40;0.40;;;14.20;87.60;;;;;;5093540;28;20616;-63
2022/12/02 13:52:28;;;;;;;0.40;0.40;;;14.20;87.60;;;;;;5091829;28;20206;-63
2022/12/02 13:55:16;;;;;;;0.40;0.40;;;14.30;87.40;;;;;;5093178;28;20345;-64
2022/12/02 13:58:04;;;;;;;0.40;0.40;;;14.30;87.70;;;;;;5093883;28;20220;-63
2022/12/02 14:00:54;;;;;;;3.50;2.20;;;14.30;87.10;;;;;;5095444;28;20625;-63
2022/12/02 14:03:42;;;;;;;0.40;0.40;;;14.40;87.00;;;;;;5096929;28;20757;-63
2022/12/02 14:06:30;;;;;;;0.40;0.40;;;14.40;86.80;;;;;;5096660;28;20224;-63
2022/12/02 14:09:18;;;;;;;0.40;0.40;;;14.40;86.80;;;;;;5096151;28;20242;-63
2022/12/02 14:12:07;;;;;;;0.40;0.40;;;;;;;;;;5096892;28;20302;-63
2022/12/02 14:14:56;;;;;;;0.40;0.40;;;14.40;85.80;;;;;;5096217;28;20597;-63
2022/12/02 14:17:46;;;;;;;0.40;0.40;;;14.40;86.20;;;;;;5096458;28;20275;-63
2022/12/02 14:20:34;;;;;;;0.40;0.40;;;14.40;86.20;;;;;;5094824;28;20249;-62
2022/12/02 14:23:22;;;;;;;0.40;0.40;;;14.40;86.40;;;;;;5095492;28;20242;-63
2022/12/02 14:26:10;;;;;;;0.40;0.40;;;14.40;86.10;;;;;;5095443;28;20704;-63
2022/12/02 14:28:58;;;;;;;0.40;0.40;;;14.30;86.20;;;;;;5095431;28;20277;-63
2022/12/02 14:31:46;;;;;;;0.40;0.40;;;14.30;86.10;;;;;;5094910;28;20255;-63
2022/12/02 14:34:36;;;;;;;0.40;0.40;;;14.30;86.30;;;;;;5099064;28;20284;-63
2022/12/02 14:37:24;;;;;;;0.40;0.40;;;14.30;86.20;;;;;;5115885;28;20735;-63
2022/12/02 14:40:12;;;;;;;0.40;0.40;;;14.30;86.20;;;;;;5115182;28;20240;-63
2022/12/02 14:43:01;;;;;;;0.40;0.40;;;14.30;86.50;;;;;;5115883;28;20479;-63
2022/12/02 14:45:49;;;;;;;0.40;0.40;;;14.30;86.40;;;;;;5114649;28;20304;-62
2022/12/02 14:48:37;;;;;;;0.63;0.63;;;14.30;86.30;;;;;;5115449;28;20192;-62
2022/12/02 14:51:26;;;;;;;0.40;0.40;;;14.20;86.20;;;;;;5114072;28;20337;-62
2022/12/02 14:54:14;;;;;;;0.40;0.40;;;14.20;86.30;;;;;;5114959;28;20231;-62